Time;durP1;ratioP1;P1;durP2;ratioP2;P2;SDS_P1;SDS_P2;PMS_P1;PMS_P2;Temp;Humidity;BMP_temperature;BMP_pressure;BME280_temperature;BME280_humidity;BME280_pressure;Samples;Min_cycle;Max_cycle;Signal;HPM_P1;HPM_P2
2023/05/26 11:43:12;;;;;;;4.45;3.85;;;;;;;;;;5189463;22;19922;-89
2023/05/26 11:45:38;;;;;;;;;;;;;;;;;;4958640;28;20077;-88
2023/05/26 11:48:03;;;;;;;;;;;;;;;;;;4976592;28;20345;-89
2023/05/26 11:50:28;;;;;;;;;;;;;;;;;;4959145;28;19968;-87
2023/05/26 16:10:03;;;;;;;;;;;;;;;;;;4997159;28;19964;-87
2023/05/26 16:12:28;;;;;;;;;;;;;;;;;;5015696;28;19928;-88
2023/05/26 16:14:54;;;;;;;;;;;;;;;;;;5015351;28;19913;-88
2023/05/26 16:17:20;;;;;;;;;;;;;;;;;;4997540;28;19914;-87
2023/05/26 16:19:45;;;;;;;;;;;;;;;;;;5015042;28;20383;-88
2023/05/26 16:22:10;;;;;;;;;;;;;;;;;;5014888;28;19913;-90
2023/05/26 16:24:35;;;;;;;;;;;;;;;;;;5015779;28;20278;-89
2023/05/26 16:27:01;;;;;;;;;;;;;;;;;;4997966;28;19920;-90
2023/05/26 16:29:26;;;;;;;;;;;;;;;;;;5015388;28;20279;-88
2023/05/26 16:31:52;;;;;;;;;;;;;;;;;;4997318;28;20368;-88
2023/05/26 16:34:17;;;;;;;;;;;;;;;;;;5014905;28;20477;-89
2023/05/26 16:36:43;;;;;;;;;;;;;;;;;;4996744;28;19918;-89
2023/05/26 16:39:08;;;;;;;;;;;;;;;;;;5015063;28;19967;-89
2023/05/26 16:41:33;;;;;;;;;;;;;;;;;;4997414;28;19914;-89
2023/05/26 16:43:59;;;;;;;;;;;;;;;;;;5014737;28;19913;-90
2023/05/26 16:46:24;;;;;;;;;;;;;;;;;;5014184;28;19914;-91
2023/05/26 16:48:49;;;;;;;;;;;;;;;;;;4997532;28;20424;-89
2023/05/26 16:51:15;;;;;;;;;;;;;;;;;;4997168;28;19914;-89
2023/05/26 16:53:40;;;;;;;;;;;;;;;;;;5014676;28;19913;-89
2023/05/26 16:56:05;;;;;;;;;;;;;;;;;;5014754;28;19913;-91
2023/05/26 16:58:31;;;;;;;;;;;;;;;;;;4997673;28;19920;-91
2023/05/26 17:00:56;;;;;;;;;;;;;;;;;;5014745;28;19914;-90
2023/05/26 17:03:21;;;;;;;;;;;;;;;;;;4997107;28;19914;-91
2023/05/26 17:05:47;;;;;;;;;;;;;;;;;;4997103;28;19956;-91
2023/05/26 17:08:12;;;;;;;;;;;;;;;;;;4997175;28;19924;-91
2023/05/26 17:10:38;;;;;;;;;;;;;;;;;;4996996;28;20287;-92
2023/05/26 17:13:03;;;;;;;;;;;;;;;;;;4996956;28;19971;-91
2023/05/26 17:15:28;;;;;;;;;;;;;;;;;;4997145;28;19917;-92
2023/05/26 17:17:54;;;;;;;;;;;;;;;;;;4997290;28;20357;-91
2023/05/26 17:20:19;;;;;;;;;;;;;;;;;;5014996;28;19913;-91
2023/05/26 17:22:44;;;;;;;;;;;;;;;;;;5001519;28;19913;-89
2023/05/26 17:25:10;;;;;;;;;;;;;;;;;;5014852;28;20415;-91
2023/05/26 17:27:35;;;;;;;;;;;;;;;;;;5014997;28;19993;-94
2023/05/26 17:30:01;;;;;;;;;;;;;;;;;;4997188;28;20368;-92
2023/05/26 17:32:27;;;;;;;;;;;;;;;;;;5014809;28;20348;-90
2023/05/26 17:34:52;;;;;;;;;;;;;;;;;;5014447;28;20261;-91
2023/05/26 17:37:17;;;;;;;;;;;;;;;;;;4997237;28;20012;-89
2023/05/26 17:39:43;;;;;;;;;;;;;;;;;;4997140;28;19913;-90
2023/05/26 17:42:08;;;;;;;;;;;;;;;;;;4997571;28;20388;-91
2023/05/26 17:44:34;;;;;;;;;;;;;;;;;;4998232;28;20261;-91
2023/05/26 17:47:01;;;;;;;;;;;;;;;;;;4997861;28;19968;-91
2023/05/26 17:49:26;;;;;;;;;;;;;;;;;;4997978;28;19935;-91
2023/05/26 17:51:51;;;;;;;;;;;;;;;;;;5014687;28;19921;-90
2023/05/26 17:54:17;;;;;;;;;;;;;;;;;;5014367;28;20012;-91
2023/05/26 17:56:42;;;;;;;;;;;;;;;;;;4997863;28;19921;-90
2023/05/26 17:59:07;;;;;;;;;;;;;;;;;;5018695;28;19914;-92
2023/05/26 18:01:33;;;;;;;;;;;;;;;;;;5018996;28;19975;-90
2023/05/26 18:03:58;;;;;;;;;;;;;;;;;;5003235;28;19953;-91
2023/05/26 18:06:23;;;;;;;;;;;;;;;;;;5026268;28;19913;-89
2023/05/26 18:08:49;;;;;;;;;;;;;;;;;;5026010;28;19948;-91
2023/05/26 18:11:15;;;;;;;;;;;;;;;;;;5026477;28;19913;-90
2023/05/26 18:13:40;;;;;;;;;;;;;;;;;;5012132;28;19917;-89
2023/05/26 18:16:05;;;;;;;;;;;;;;;;;;5038998;28;19909;-91
2023/05/26 18:18:31;;;;;;;;;;;;;;;;;;5037767;28;19936;-92
2023/05/26 18:20:56;;;;;;;;;;;;;;;;;;5020281;28;19913;-91
2023/05/26 18:23:21;;;;;;;;;;;;;;;;;;5020005;28;19913;-92
2023/05/26 18:25:47;;;;;;;;;;;;;;;;;;5019777;28;19919;-91
2023/05/26 18:28:12;;;;;;;;;;;;;;;;;;5037431;28;19909;-91
2023/05/26 18:30:37;;;;;;;;;;;;;;;;;;5037409;28;19913;-89
2023/05/26 18:33:02;;;;;;;;;;;;;;;;;;5019395;28;19913;-91
2023/05/26 18:35:29;;;;;;;;;;;;;;;;;;5019158;28;19924;-93
2023/05/26 18:37:56;;;;;;;;;;;;;;;;;;5037048;28;19913;-91
2023/05/26 18:40:21;;;;;;;;;;;;;;;;;;5036975;28;19913;-89
2023/05/26 18:42:46;;;;;;;;;;;;;;;;;;5019040;28;19913;-91
2023/05/26 18:45:13;;;;;;;;;;;;;;;;;;5037133;28;19913;-90
2023/05/26 18:47:38;;;;;;;;;;;;;;;;;;5036999;28;19913;-91
2023/05/26 18:50:04;;;;;;;;;;;;;;;;;;5019029;28;19919;-90
2023/05/26 18:52:30;;;;;;;;;;;;;;;;;;5037038;28;19917;-92
2023/05/26 18:54:56;;;;;;;;;;;;;;;;;;5036530;28;20403;-92
2023/05/26 18:57:21;;;;;;;;;;;;;;;;;;5018981;28;19920;-91
2023/05/26 18:59:48;;;;;;;;;;;;;;;;;;5036596;28;20230;-91
2023/05/26 19:02:13;;;;;;;;;;;;;;;;;;5018970;28;20131;-91
2023/05/26 19:04:38;;;;;;;;;;;;;;;;;;5036622;28;19971;-90
2023/05/26 19:07:04;;;;;;;;;;;;;;;;;;5018959;28;20313;-90
2023/05/26 19:09:29;;;;;;;;;;;;;;;;;;5035958;28;19917;-90
2023/05/26 19:11:54;;;;;;;;;;;;;;;;;;5018974;28;20020;-90
2023/05/26 19:14:20;;;;;;;;;;;;;;;;;;5036419;28;19913;-91
2023/05/26 19:16:49;;;;;;;;;;;;;;;;;;5019103;28;20356;-91
2023/05/26 19:19:14;;;;;;;;;;;;;;;;;;5036564;28;20315;-92
2023/05/26 19:21:39;;;;;;;;;;;;;;;;;;5018825;28;19913;-91
2023/05/26 19:24:06;;;;;;;;;;;;;;;;;;5018729;28;19913;-91
2023/05/26 19:26:32;;;;;;;;;;;;;;;;;;5018591;28;19912;-91
2023/05/26 19:28:58;;;;;;;;;;;;;;;;;;5036351;28;19913;-91
2023/05/26 19:31:23;;;;;;;;;;;;;;;;;;5018216;28;20008;-90
2023/05/26 19:33:49;;;;;;;;;;;;;;;;;;5035982;28;19921;-88
2023/05/26 19:36:14;;;;;;;;;;;;;;;;;;5035533;28;19919;-89
2023/05/26 19:38:39;;;;;;;;;;;;;;;;;;5035845;28;19917;-89
2023/05/26 19:41:05;;;;;;;;;;;;;;;;;;5035875;28;19944;-89
2023/05/26 19:43:30;;;;;;;;;;;;;;;;;;5035413;28;20287;-89
2023/05/26 19:45:56;;;;;;;;;;;;;;;;;;5017738;28;19912;-88
2023/05/26 19:48:21;;;;;;;;;;;;;;;;;;5035473;28;20043;-89
2023/05/26 19:50:46;;;;;;;;;;;;;;;;;;5017666;28;19974;-89
2023/05/26 19:53:12;;;;;;;;;;;;;;;;;;5017648;28;19913;-89
2023/05/26 19:55:37;;;;;;;;;;;;;;;;;;5035376;28;20330;-90
2023/05/26 19:58:03;;;;;;;;;;;;;;;;;;5017663;28;20360;-90
2023/05/26 20:00:28;;;;;;;;;;;;;;;;;;5035388;28;19923;-89
2023/05/26 20:02:54;;;;;;;;;;;;;;;;;;5035113;28;19995;-89
2023/05/26 20:05:19;;;;;;;;;;;;;;;;;;5035152;28;19913;-90
2023/05/26 20:07:44;;;;;;;;;;;;;;;;;;5035321;28;19939;-89
2023/05/26 20:10:10;;;;;;;;;;;;;;;;;;5035048;28;19971;-89
2023/05/26 20:12:36;;;;;;;;;;;;;;;;;;5035191;28;19913;-89
2023/05/26 20:15:01;;;;;;;;;;;;;;;;;;5017466;28;20004;-89
2023/05/26 20:17:27;;;;;;;;;;;;;;;;;;5034926;28;20027;-89
2023/05/26 20:19:52;;;;;;;;;;;;;;;;;;5035111;28;20383;-89
2023/05/26 20:22:17;;;;;;;;;;;;;;;;;;5016178;28;19909;-90
2023/05/26 20:24:43;;;;;;;;;;;;;;;;;;5035080;28;19956;-89
2023/05/26 20:27:09;;;;;;;;;;;;;;;;;;5034901;28;19996;-89
2023/05/26 20:29:35;;;;;;;;;;;;;;;;;;5017001;28;20006;-90
2023/05/26 20:32:01;;;;;;;;;;;;;;;;;;5034934;28;20367;-89
2023/05/26 20:34:26;;;;;;;;;;;;;;;;;;5034907;28;19917;-90
2023/05/26 20:36:51;;;;;;;;;;;;;;;;;;5034705;28;19913;-89
2023/05/26 20:39:17;;;;;;;;;;;;;;;;;;5034543;28;19913;-89
2023/05/26 20:41:42;;;;;;;;;;;;;;;;;;5016827;28;19920;-87
